sensor_id;sensor_type;location;lat;lon;timestamp;P1;durP1;ratioP1;P2;durP2;ratioP2
7057;SDS011;3570;43.080;25.628;2022-09-09T00:02:21;3.03;;;2.70;;
7057;SDS011;3570;43.080;25.628;2022-09-09T00:05:17;3.50;;;2.83;;
7057;SDS011;3570;43.080;25.628;2022-09-09T00:08:14;3.03;;;2.67;;
7057;SDS011;3570;43.080;25.628;2022-09-09T00:11:03;2.57;;;2.30;;
7057;SDS011;3570;43.080;25.628;2022-09-09T00:13:51;3.53;;;2.70;;
7057;SDS011;3570;43.080;25.628;2022-09-09T00:16:38;3.20;;;2.60;;
7057;SDS011;3570;43.080;25.628;2022-09-09T00:19:30;4.57;;;2.60;;
7057;SDS011;3570;43.080;25.628;2022-09-09T00:22:24;3.77;;;2.80;;
7057;SDS011;3570;43.080;25.628;2022-09-09T00:25:14;3.97;;;2.87;;
7057;SDS011;3570;43.080;25.628;2022-09-09T00:28:07;3.40;;;2.80;;
7057;SDS011;3570;43.080;25.628;2022-09-09T00:31:18;2.53;;;2.33;;
7057;SDS011;3570;43.080;25.628;2022-09-09T00:34:46;3.30;;;3.00;;
7057;SDS011;3570;43.080;25.628;2022-09-09T00:37:17;3.63;;;2.80;;
7057;SDS011;3570;43.080;25.628;2022-09-09T00:40:05;3.90;;;2.97;;
7057;SDS011;3570;43.080;25.628;2022-09-09T00:49:29;6.90;;;2.60;;
7057;SDS011;3570;43.080;25.628;2022-09-09T00:55:19;3.33;;;2.40;;
7057;SDS011;3570;43.080;25.628;2022-09-09T00:58:24;4.10;;;2.70;;
7057;SDS011;3570;43.080;25.628;2022-09-09T01:01:12;2.77;;;2.50;;
7057;SDS011;3570;43.080;25.628;2022-09-09T01:03:57;2.83;;;2.43;;
7057;SDS011;3570;43.080;25.628;2022-09-09T01:06:44;3.50;;;2.83;;
7057;SDS011;3570;43.080;25.628;2022-09-09T01:12:42;3.30;;;2.60;;
7057;SDS011;3570;43.080;25.628;2022-09-09T01:15:29;6.40;;;3.13;;
7057;SDS011;3570;43.080;25.628;2022-09-09T01:18:17;3.90;;;3.13;;
7057;SDS011;3570;43.080;25.628;2022-09-09T01:26:59;4.37;;;3.37;;
7057;SDS011;3570;43.080;25.628;2022-09-09T01:29:49;3.10;;;2.80;;
7057;SDS011;3570;43.080;25.628;2022-09-09T01:32:46;2.80;;;2.60;;
7057;SDS011;3570;43.080;25.628;2022-09-09T01:38:29;3.17;;;2.40;;
7057;SDS011;3570;43.080;25.628;2022-09-09T01:41:15;3.43;;;3.10;;
7057;SDS011;3570;43.080;25.628;2022-09-09T01:43:59;3.30;;;2.50;;
7057;SDS011;3570;43.080;25.628;2022-09-09T01:46:44;2.90;;;2.60;;
7057;SDS011;3570;43.080;25.628;2022-09-09T01:49:28;3.43;;;3.00;;
7057;SDS011;3570;43.080;25.628;2022-09-09T01:52:12;4.23;;;2.90;;
7057;SDS011;3570;43.080;25.628;2022-09-09T01:54:56;3.37;;;3.07;;
7057;SDS011;3570;43.080;25.628;2022-09-09T01:57:51;3.70;;;2.50;;
7057;SDS011;3570;43.080;25.628;2022-09-09T02:07:13;3.30;;;3.00;;
7057;SDS011;3570;43.080;25.628;2022-09-09T02:10:08;5.20;;;3.30;;
7057;SDS011;3570;43.080;25.628;2022-09-09T02:13:02;3.23;;;2.83;;
7057;SDS011;3570;43.080;25.628;2022-09-09T02:16:10;3.83;;;3.03;;
7057;SDS011;3570;43.080;25.628;2022-09-09T02:22:07;3.60;;;3.10;;
7057;SDS011;3570;43.080;25.628;2022-09-09T02:24:53;3.80;;;2.87;;
7057;SDS011;3570;43.080;25.628;2022-09-09T02:27:42;3.73;;;2.90;;
7057;SDS011;3570;43.080;25.628;2022-09-09T02:30:30;3.37;;;3.03;;
7057;SDS011;3570;43.080;25.628;2022-09-09T02:33:18;3.20;;;2.90;;
7057;SDS011;3570;43.080;25.628;2022-09-09T02:36:03;4.63;;;3.13;;
7057;SDS011;3570;43.080;25.628;2022-09-09T02:38:50;3.80;;;2.90;;
7057;SDS011;3570;43.080;25.628;2022-09-09T02:41:38;2.90;;;2.60;;
7057;SDS011;3570;43.080;25.628;2022-09-09T02:44:23;3.73;;;2.80;;
7057;SDS011;3570;43.080;25.628;2022-09-09T02:50:16;3.27;;;2.87;;
7057;SDS011;3570;43.080;25.628;2022-09-09T02:58:48;3.20;;;2.83;;
7057;SDS011;3570;43.080;25.628;2022-09-09T03:01:34;4.93;;;3.47;;
7057;SDS011;3570;43.080;25.628;2022-09-09T03:04:19;3.97;;;2.87;;
7057;SDS011;3570;43.080;25.628;2022-09-09T03:07:04;4.10;;;3.20;;
7057;SDS011;3570;43.080;25.628;2022-09-09T03:09:48;3.57;;;3.00;;
7057;SDS011;3570;43.080;25.628;2022-09-09T03:12:32;3.53;;;2.83;;
7057;SDS011;3570;43.080;25.628;2022-09-09T03:15:16;3.23;;;2.70;;
7057;SDS011;3570;43.080;25.628;2022-09-09T03:18:01;6.63;;;3.23;;
7057;SDS011;3570;43.080;25.628;2022-09-09T03:20:45;6.70;;;3.50;;
7057;SDS011;3570;43.080;25.628;2022-09-09T03:23:31;3.50;;;3.20;;
7057;SDS011;3570;43.080;25.628;2022-09-09T03:26:15;3.40;;;3.10;;
7057;SDS011;3570;43.080;25.628;2022-09-09T03:28:59;4.57;;;3.37;;
7057;SDS011;3570;43.080;25.628;2022-09-09T03:31:44;3.90;;;3.10;;
7057;SDS011;3570;43.080;25.628;2022-09-09T03:34:28;6.17;;;3.10;;
7057;SDS011;3570;43.080;25.628;2022-09-09T03:37:12;3.73;;;2.70;;
7057;SDS011;3570;43.080;25.628;2022-09-09T03:39:56;4.97;;;3.13;;
7057;SDS011;3570;43.080;25.628;2022-09-09T03:42:40;3.13;;;2.70;;
7057;SDS011;3570;43.080;25.628;2022-09-09T03:45:24;4.53;;;3.10;;
7057;SDS011;3570;43.080;25.628;2022-09-09T03:48:08;3.70;;;2.57;;
7057;SDS011;3570;43.080;25.628;2022-09-09T03:50:55;4.37;;;3.07;;
7057;SDS011;3570;43.080;25.628;2022-09-09T03:53:41;3.30;;;2.77;;
7057;SDS011;3570;43.080;25.628;2022-09-09T03:56:26;3.37;;;3.07;;
7057;SDS011;3570;43.080;25.628;2022-09-09T03:59:10;3.00;;;2.50;;
7057;SDS011;3570;43.080;25.628;2022-09-09T04:01:54;4.30;;;2.97;;
7057;SDS011;3570;43.080;25.628;2022-09-09T04:04:38;3.73;;;2.70;;
7057;SDS011;3570;43.080;25.628;2022-09-09T04:07:22;3.80;;;3.10;;
7057;SDS011;3570;43.080;25.628;2022-09-09T04:10:06;3.93;;;3.37;;
7057;SDS011;3570;43.080;25.628;2022-09-09T04:12:52;5.67;;;3.40;;
7057;SDS011;3570;43.080;25.628;2022-09-09T04:15:36;3.70;;;3.00;;
7057;SDS011;3570;43.080;25.628;2022-09-09T04:18:20;3.97;;;2.87;;
7057;SDS011;3570;43.080;25.628;2022-09-09T04:21:05;5.90;;;3.73;;
7057;SDS011;3570;43.080;25.628;2022-09-09T04:23:50;4.27;;;3.67;;
7057;SDS011;3570;43.080;25.628;2022-09-09T04:26:35;5.37;;;3.20;;
7057;SDS011;3570;43.080;25.628;2022-09-09T04:29:20;6.57;;;3.10;;
7057;SDS011;3570;43.080;25.628;2022-09-09T04:32:04;2.90;;;2.63;;
7057;SDS011;3570;43.080;25.628;2022-09-09T04:34:49;2.60;;;2.40;;
7057;SDS011;3570;43.080;25.628;2022-09-09T04:37:32;4.13;;;2.73;;
7057;SDS011;3570;43.080;25.628;2022-09-09T04:40:16;3.27;;;2.90;;
7057;SDS011;3570;43.080;25.628;2022-09-09T04:43:01;3.73;;;3.07;;
7057;SDS011;3570;43.080;25.628;2022-09-09T04:45:50;5.30;;;2.70;;
7057;SDS011;3570;43.080;25.628;2022-09-09T04:48:37;2.87;;;2.53;;
7057;SDS011;3570;43.080;25.628;2022-09-09T04:51:21;3.37;;;3.00;;
7057;SDS011;3570;43.080;25.628;2022-09-09T04:54:06;3.27;;;2.87;;
7057;SDS011;3570;43.080;25.628;2022-09-09T04:56:50;4.00;;;2.50;;
7057;SDS011;3570;43.080;25.628;2022-09-09T04:59:34;2.87;;;2.50;;
7057;SDS011;3570;43.080;25.628;2022-09-09T05:02:18;3.27;;;2.50;;
7057;SDS011;3570;43.080;25.628;2022-09-09T05:05:02;4.60;;;3.20;;
7057;SDS011;3570;43.080;25.628;2022-09-09T05:07:47;4.97;;;3.07;;
7057;SDS011;3570;43.080;25.628;2022-09-09T05:10:32;3.47;;;2.60;;
7057;SDS011;3570;43.080;25.628;2022-09-09T05:13:17;3.33;;;2.63;;
7057;SDS011;3570;43.080;25.628;2022-09-09T05:16:12;4.27;;;3.10;;
7057;SDS011;3570;43.080;25.628;2022-09-09T05:18:57;5.87;;;3.73;;
7057;SDS011;3570;43.080;25.628;2022-09-09T05:21:42;3.57;;;2.90;;
7057;SDS011;3570;43.080;25.628;2022-09-09T05:24:27;5.97;;;3.60;;
7057;SDS011;3570;43.080;25.628;2022-09-09T05:27:11;6.60;;;3.70;;
7057;SDS011;3570;43.080;25.628;2022-09-09T05:29:56;4.00;;;3.50;;
7057;SDS011;3570;43.080;25.628;2022-09-09T05:32:41;5.37;;;3.33;;
7057;SDS011;3570;43.080;25.628;2022-09-09T05:35:25;3.33;;;2.90;;
7057;SDS011;3570;43.080;25.628;2022-09-09T05:38:09;5.13;;;3.27;;
7057;SDS011;3570;43.080;25.628;2022-09-09T05:40:53;4.27;;;2.70;;
7057;SDS011;3570;43.080;25.628;2022-09-09T05:43:37;3.47;;;2.73;;
7057;SDS011;3570;43.080;25.628;2022-09-09T05:46:22;5.97;;;3.20;;
7057;SDS011;3570;43.080;25.628;2022-09-09T05:49:08;4.20;;;3.40;;
7057;SDS011;3570;43.080;25.628;2022-09-09T05:51:53;4.13;;;3.20;;
7057;SDS011;3570;43.080;25.628;2022-09-09T05:54:37;4.00;;;2.90;;
7057;SDS011;3570;43.080;25.628;2022-09-09T05:57:21;5.13;;;3.43;;
7057;SDS011;3570;43.080;25.628;2022-09-09T06:00:05;3.60;;;3.13;;
7057;SDS011;3570;43.080;25.628;2022-09-09T06:02:51;4.73;;;3.20;;
7057;SDS011;3570;43.080;25.628;2022-09-09T06:05:36;3.90;;;3.00;;
7057;SDS011;3570;43.080;25.628;2022-09-09T06:08:20;4.57;;;3.13;;
7057;SDS011;3570;43.080;25.628;2022-09-09T06:11:05;4.30;;;3.47;;
7057;SDS011;3570;43.080;25.628;2022-09-09T06:13:51;6.13;;;3.70;;
7057;SDS011;3570;43.080;25.628;2022-09-09T06:16:37;4.30;;;3.20;;
7057;SDS011;3570;43.080;25.628;2022-09-09T06:19:21;5.47;;;3.57;;
7057;SDS011;3570;43.080;25.628;2022-09-09T06:22:05;3.97;;;3.20;;
7057;SDS011;3570;43.080;25.628;2022-09-09T06:24:49;3.10;;;2.73;;
7057;SDS011;3570;43.080;25.628;2022-09-09T06:27:34;3.63;;;2.73;;
7057;SDS011;3570;43.080;25.628;2022-09-09T06:30:18;9.60;;;3.20;;
7057;SDS011;3570;43.080;25.628;2022-09-09T06:33:03;3.63;;;3.00;;
7057;SDS011;3570;43.080;25.628;2022-09-09T06:35:51;3.57;;;3.13;;
7057;SDS011;3570;43.080;25.628;2022-09-09T06:38:36;3.73;;;3.07;;
7057;SDS011;3570;43.080;25.628;2022-09-09T06:41:21;3.40;;;2.80;;
7057;SDS011;3570;43.080;25.628;2022-09-09T06:44:07;9.77;;;3.50;;
7057;SDS011;3570;43.080;25.628;2022-09-09T06:46:52;3.80;;;3.00;;
7057;SDS011;3570;43.080;25.628;2022-09-09T06:49:36;3.07;;;2.80;;
7057;SDS011;3570;43.080;25.628;2022-09-09T06:52:20;3.27;;;2.40;;
7057;SDS011;3570;43.080;25.628;2022-09-09T06:55:05;2.90;;;2.60;;
7057;SDS011;3570;43.080;25.628;2022-09-09T06:57:49;2.70;;;2.50;;
7057;SDS011;3570;43.080;25.628;2022-09-09T07:00:35;4.30;;;3.07;;
7057;SDS011;3570;43.080;25.628;2022-09-09T07:03:22;5.17;;;3.90;;
7057;SDS011;3570;43.080;25.628;2022-09-09T07:06:06;3.60;;;3.20;;
7057;SDS011;3570;43.080;25.628;2022-09-09T07:08:51;2.90;;;2.67;;
7057;SDS011;3570;43.080;25.628;2022-09-09T07:11:40;3.03;;;2.73;;
7057;SDS011;3570;43.080;25.628;2022-09-09T07:14:26;4.13;;;2.80;;
7057;SDS011;3570;43.080;25.628;2022-09-09T07:17:11;2.67;;;2.47;;
7057;SDS011;3570;43.080;25.628;2022-09-09T07:19:55;2.50;;;2.30;;
7057;SDS011;3570;43.080;25.628;2022-09-09T07:22:40;3.37;;;2.60;;
7057;SDS011;3570;43.080;25.628;2022-09-09T07:25:24;3.13;;;2.83;;
7057;SDS011;3570;43.080;25.628;2022-09-09T07:28:11;4.90;;;2.77;;
7057;SDS011;3570;43.080;25.628;2022-09-09T07:30:56;3.00;;;2.70;;
7057;SDS011;3570;43.080;25.628;2022-09-09T07:33:42;2.80;;;2.47;;
7057;SDS011;3570;43.080;25.628;2022-09-09T07:36:28;2.60;;;2.40;;
7057;SDS011;3570;43.080;25.628;2022-09-09T07:39:15;3.93;;;3.00;;
7057;SDS011;3570;43.080;25.628;2022-09-09T07:42:01;5.33;;;2.80;;
7057;SDS011;3570;43.080;25.628;2022-09-09T07:44:45;3.75;;;2.92;;
7057;SDS011;3570;43.080;25.628;2022-09-09T07:47:29;3.70;;;2.80;;
7057;SDS011;3570;43.080;25.628;2022-09-09T07:50:13;3.25;;;2.63;;
7057;SDS011;3570;43.080;25.628;2022-09-09T07:52:58;4.53;;;3.10;;
7057;SDS011;3570;43.080;25.628;2022-09-09T07:55:43;6.47;;;3.88;;
7057;SDS011;3570;43.080;25.628;2022-09-09T07:58:27;4.22;;;3.22;;
7057;SDS011;3570;43.080;25.628;2022-09-09T08:01:12;3.05;;;2.75;;
7057;SDS011;3570;43.080;25.628;2022-09-09T08:04:02;2.65;;;2.42;;
7057;SDS011;3570;43.080;25.628;2022-09-09T08:06:50;3.53;;;2.70;;
7057;SDS011;3570;43.080;25.628;2022-09-09T08:09:37;3.03;;;2.83;;
7057;SDS011;3570;43.080;25.628;2022-09-09T08:12:21;5.72;;;2.80;;
7057;SDS011;3570;43.080;25.628;2022-09-09T08:15:05;5.97;;;3.10;;
7057;SDS011;3570;43.080;25.628;2022-09-09T08:17:49;3.28;;;2.40;;
7057;SDS011;3570;43.080;25.628;2022-09-09T08:20:35;3.17;;;2.88;;
7057;SDS011;3570;43.080;25.628;2022-09-09T08:23:20;3.50;;;2.58;;
7057;SDS011;3570;43.080;25.628;2022-09-09T08:26:05;4.43;;;2.80;;
7057;SDS011;3570;43.080;25.628;2022-09-09T08:28:53;5.68;;;2.58;;
7057;SDS011;3570;43.080;25.628;2022-09-09T08:31:40;3.05;;;2.45;;
7057;SDS011;3570;43.080;25.628;2022-09-09T08:34:27;2.90;;;2.70;;
7057;SDS011;3570;43.080;25.628;2022-09-09T08:37:12;2.78;;;2.58;;
7057;SDS011;3570;43.080;25.628;2022-09-09T08:39:56;2.88;;;2.42;;
7057;SDS011;3570;43.080;25.628;2022-09-09T08:42:41;5.28;;;2.90;;
7057;SDS011;3570;43.080;25.628;2022-09-09T08:51:45;2.63;;;2.42;;
7057;SDS011;3570;43.080;25.628;2022-09-09T08:54:33;4.75;;;2.80;;
7057;SDS011;3570;43.080;25.628;2022-09-09T08:57:21;2.80;;;2.50;;
7057;SDS011;3570;43.080;25.628;2022-09-09T09:00:12;2.95;;;2.60;;
7057;SDS011;3570;43.080;25.628;2022-09-09T09:03:07;2.70;;;2.50;;
7057;SDS011;3570;43.080;25.628;2022-09-09T09:11:54;6.07;;;3.38;;
7057;SDS011;3570;43.080;25.628;2022-09-09T09:14:47;3.88;;;2.75;;
7057;SDS011;3570;43.080;25.628;2022-09-09T09:17:32;2.80;;;2.50;;
7057;SDS011;3570;43.080;25.628;2022-09-09T09:20:18;2.97;;;2.67;;
7057;SDS011;3570;43.080;25.628;2022-09-09T09:23:12;2.65;;;2.45;;
7057;SDS011;3570;43.080;25.628;2022-09-09T09:26:06;3.17;;;2.63;;
7057;SDS011;3570;43.080;25.628;2022-09-09T09:28:55;4.93;;;2.53;;
7057;SDS011;3570;43.080;25.628;2022-09-09T09:31:51;3.28;;;2.97;;
7057;SDS011;3570;43.080;25.628;2022-09-09T09:34:39;4.55;;;3.00;;
7057;SDS011;3570;43.080;25.628;2022-09-09T09:37:28;4.47;;;2.50;;
7057;SDS011;3570;43.080;25.628;2022-09-09T09:40:16;2.92;;;2.63;;
7057;SDS011;3570;43.080;25.628;2022-09-09T09:43:02;2.83;;;2.58;;
7057;SDS011;3570;43.080;25.628;2022-09-09T09:45:52;2.83;;;2.50;;
7057;SDS011;3570;43.080;25.628;2022-09-09T09:48:36;2.85;;;2.55;;
7057;SDS011;3570;43.080;25.628;2022-09-09T09:51:20;3.20;;;2.63;;
7057;SDS011;3570;43.080;25.628;2022-09-09T09:56:56;2.67;;;2.47;;
7057;SDS011;3570;43.080;25.628;2022-09-09T10:00:32;3.42;;;2.60;;
7057;SDS011;3570;43.080;25.628;2022-09-09T10:03:14;5.18;;;2.50;;
7057;SDS011;3570;43.080;25.628;2022-09-09T10:06:05;2.70;;;2.50;;
7057;SDS011;3570;43.080;25.628;2022-09-09T10:08:50;2.97;;;2.67;;
7057;SDS011;3570;43.080;25.628;2022-09-09T10:11:48;4.05;;;2.85;;
7057;SDS011;3570;43.080;25.628;2022-09-09T10:26:49;2.40;;;2.20;;
7057;SDS011;3570;43.080;25.628;2022-09-09T10:29:58;4.38;;;2.92;;
7057;SDS011;3570;43.080;25.628;2022-09-09T10:36:11;2.78;;;2.58;;
7057;SDS011;3570;43.080;25.628;2022-09-09T10:39:04;2.90;;;2.60;;
7057;SDS011;3570;43.080;25.628;2022-09-09T10:42:04;4.53;;;2.53;;
7057;SDS011;3570;43.080;25.628;2022-09-09T10:50:50;2.58;;;2.38;;
7057;SDS011;3570;43.080;25.628;2022-09-09T10:53:44;3.25;;;2.65;;
7057;SDS011;3570;43.080;25.628;2022-09-09T10:56:36;2.58;;;2.38;;
7057;SDS011;3570;43.080;25.628;2022-09-09T10:59:28;3.20;;;2.47;;
7057;SDS011;3570;43.080;25.628;2022-09-09T11:02:26;3.15;;;2.70;;
7057;SDS011;3570;43.080;25.628;2022-09-09T11:05:19;4.18;;;2.63;;
7057;SDS011;3570;43.080;25.628;2022-09-09T11:08:10;2.97;;;2.67;;
7057;SDS011;3570;43.080;25.628;2022-09-09T11:11:02;3.00;;;2.70;;
7057;SDS011;3570;43.080;25.628;2022-09-09T11:16:52;3.70;;;2.90;;
7057;SDS011;3570;43.080;25.628;2022-09-09T11:19:41;2.83;;;2.55;;
7057;SDS011;3570;43.080;25.628;2022-09-09T11:25:18;2.60;;;2.40;;
7057;SDS011;3570;43.080;25.628;2022-09-09T11:34:14;4.70;;;2.88;;
7057;SDS011;3570;43.080;25.628;2022-09-09T11:37:06;4.82;;;2.80;;
7057;SDS011;3570;43.080;25.628;2022-09-09T11:40:07;3.35;;;2.72;;
7057;SDS011;3570;43.080;25.628;2022-09-09T11:46:01;2.90;;;2.63;;
7057;SDS011;3570;43.080;25.628;2022-09-09T11:49:21;6.85;;;2.80;;
7057;SDS011;3570;43.080;25.628;2022-09-09T11:52:13;5.50;;;3.03;;
7057;SDS011;3570;43.080;25.628;2022-09-09T11:55:23;3.13;;;2.83;;
7057;SDS011;3570;43.080;25.628;2022-09-09T12:00:57;4.40;;;3.10;;
7057;SDS011;3570;43.080;25.628;2022-09-09T12:06:32;3.17;;;2.70;;
7057;SDS011;3570;43.080;25.628;2022-09-09T12:17:44;2.67;;;2.47;;
7057;SDS011;3570;43.080;25.628;2022-09-09T12:29:31;3.58;;;3.03;;
7057;SDS011;3570;43.080;25.628;2022-09-09T12:32:38;3.58;;;3.28;;
7057;SDS011;3570;43.080;25.628;2022-09-09T12:35:25;2.67;;;2.47;;
7057;SDS011;3570;43.080;25.628;2022-09-09T12:38:13;3.80;;;2.60;;
7057;SDS011;3570;43.080;25.628;2022-09-09T12:41:19;5.97;;;2.90;;
7057;SDS011;3570;43.080;25.628;2022-09-09T12:44:08;3.60;;;3.28;;
7057;SDS011;3570;43.080;25.628;2022-09-09T12:46:54;3.38;;;3.05;;
7057;SDS011;3570;43.080;25.628;2022-09-09T12:49:40;5.40;;;3.17;;
7057;SDS011;3570;43.080;25.628;2022-09-09T12:52:32;3.38;;;3.05;;
7057;SDS011;3570;43.080;25.628;2022-09-09T12:55:23;3.90;;;3.30;;
7057;SDS011;3570;43.080;25.628;2022-09-09T12:58:11;5.32;;;3.50;;
7057;SDS011;3570;43.080;25.628;2022-09-09T13:01:01;3.35;;;2.92;;
7057;SDS011;3570;43.080;25.628;2022-09-09T13:03:48;3.88;;;3.00;;
7057;SDS011;3570;43.080;25.628;2022-09-09T13:06:33;5.60;;;3.67;;
7057;SDS011;3570;43.080;25.628;2022-09-09T13:09:18;3.50;;;3.20;;
7057;SDS011;3570;43.080;25.628;2022-09-09T13:12:02;4.20;;;3.50;;
7057;SDS011;3570;43.080;25.628;2022-09-09T13:14:51;3.20;;;2.90;;
7057;SDS011;3570;43.080;25.628;2022-09-09T13:17:40;3.83;;;3.42;;
7057;SDS011;3570;43.080;25.628;2022-09-09T13:20:24;4.25;;;3.38;;
7057;SDS011;3570;43.080;25.628;2022-09-09T13:23:09;3.20;;;2.90;;
7057;SDS011;3570;43.080;25.628;2022-09-09T13:25:56;3.65;;;3.20;;
7057;SDS011;3570;43.080;25.628;2022-09-09T13:28:44;3.47;;;3.08;;
7057;SDS011;3570;43.080;25.628;2022-09-09T13:31:30;4.55;;;3.35;;
7057;SDS011;3570;43.080;25.628;2022-09-09T13:34:30;4.13;;;3.08;;
7057;SDS011;3570;43.080;25.628;2022-09-09T13:40:26;3.95;;;3.22;;
7057;SDS011;3570;43.080;25.628;2022-09-09T13:43:15;3.97;;;3.05;;
7057;SDS011;3570;43.080;25.628;2022-09-09T13:46:19;3.30;;;3.00;;
7057;SDS011;3570;43.080;25.628;2022-09-09T13:55:10;3.13;;;2.83;;
7057;SDS011;3570;43.080;25.628;2022-09-09T13:57:55;6.45;;;3.42;;
7057;SDS011;3570;43.080;25.628;2022-09-09T14:00:41;4.97;;;3.50;;
7057;SDS011;3570;43.080;25.628;2022-09-09T14:03:25;4.80;;;3.20;;
7057;SDS011;3570;43.080;25.628;2022-09-09T14:06:10;4.03;;;3.40;;
7057;SDS011;3570;43.080;25.628;2022-09-09T14:08:55;3.92;;;3.15;;
7057;SDS011;3570;43.080;25.628;2022-09-09T14:11:39;3.83;;;3.17;;
7057;SDS011;3570;43.080;25.628;2022-09-09T14:14:24;4.10;;;3.70;;
7057;SDS011;3570;43.080;25.628;2022-09-09T14:17:09;4.88;;;3.20;;
7057;SDS011;3570;43.080;25.628;2022-09-09T14:19:53;5.47;;;3.50;;
7057;SDS011;3570;43.080;25.628;2022-09-09T14:22:37;7.65;;;3.75;;
7057;SDS011;3570;43.080;25.628;2022-09-09T14:25:22;5.22;;;3.28;;
7057;SDS011;3570;43.080;25.628;2022-09-09T14:28:08;3.80;;;3.28;;
7057;SDS011;3570;43.080;25.628;2022-09-09T14:30:54;3.95;;;3.10;;
7057;SDS011;3570;43.080;25.628;2022-09-09T14:33:38;3.70;;;3.28;;
7057;SDS011;3570;43.080;25.628;2022-09-09T14:36:22;5.60;;;3.35;;
7057;SDS011;3570;43.080;25.628;2022-09-09T14:39:08;3.55;;;3.25;;
7057;SDS011;3570;43.080;25.628;2022-09-09T14:41:51;3.40;;;3.10;;
7057;SDS011;3570;43.080;25.628;2022-09-09T14:44:35;3.85;;;3.53;;
7057;SDS011;3570;43.080;25.628;2022-09-09T14:47:21;3.97;;;3.40;;
7057;SDS011;3570;43.080;25.628;2022-09-09T14:50:05;4.60;;;3.40;;
7057;SDS011;3570;43.080;25.628;2022-09-09T14:52:51;3.40;;;3.10;;
7057;SDS011;3570;43.080;25.628;2022-09-09T14:55:36;5.28;;;3.45;;
7057;SDS011;3570;43.080;25.628;2022-09-09T14:58:20;5.88;;;3.60;;
7057;SDS011;3570;43.080;25.628;2022-09-09T15:01:08;5.88;;;3.85;;
7057;SDS011;3570;43.080;25.628;2022-09-09T15:03:58;6.63;;;4.03;;
7057;SDS011;3570;43.080;25.628;2022-09-09T15:06:43;4.88;;;3.78;;
7057;SDS011;3570;43.080;25.628;2022-09-09T15:09:31;4.18;;;3.78;;
7057;SDS011;3570;43.080;25.628;2022-09-09T15:12:15;4.57;;;4.00;;
7057;SDS011;3570;43.080;25.628;2022-09-09T15:15:02;5.18;;;4.53;;
7057;SDS011;3570;43.080;25.628;2022-09-09T15:17:47;4.80;;;4.20;;
7057;SDS011;3570;43.080;25.628;2022-09-09T15:20:31;6.50;;;4.55;;
7057;SDS011;3570;43.080;25.628;2022-09-09T15:23:15;5.35;;;4.18;;
7057;SDS011;3570;43.080;25.628;2022-09-09T15:26:00;5.55;;;4.43;;
7057;SDS011;3570;43.080;25.628;2022-09-09T15:28:46;5.30;;;4.80;;
7057;SDS011;3570;43.080;25.628;2022-09-09T15:31:31;4.20;;;3.80;;
7057;SDS011;3570;43.080;25.628;2022-09-09T15:34:15;4.82;;;4.35;;
7057;SDS011;3570;43.080;25.628;2022-09-09T15:36:59;6.07;;;4.50;;
7057;SDS011;3570;43.080;25.628;2022-09-09T15:39:43;6.85;;;4.25;;
7057;SDS011;3570;43.080;25.628;2022-09-09T15:42:27;7.35;;;4.80;;
7057;SDS011;3570;43.080;25.628;2022-09-09T15:45:11;5.75;;;4.63;;
7057;SDS011;3570;43.080;25.628;2022-09-09T15:47:56;5.78;;;5.05;;
7057;SDS011;3570;43.080;25.628;2022-09-09T15:50:40;8.00;;;4.75;;
7057;SDS011;3570;43.080;25.628;2022-09-09T15:53:24;6.88;;;5.03;;
7057;SDS011;3570;43.080;25.628;2022-09-09T15:56:08;5.13;;;4.63;;
7057;SDS011;3570;43.080;25.628;2022-09-09T15:58:53;4.97;;;4.47;;
7057;SDS011;3570;43.080;25.628;2022-09-09T16:01:38;7.45;;;4.68;;
7057;SDS011;3570;43.080;25.628;2022-09-09T16:04:23;5.63;;;4.55;;
7057;SDS011;3570;43.080;25.628;2022-09-09T16:07:08;6.07;;;4.97;;
7057;SDS011;3570;43.080;25.628;2022-09-09T16:09:52;5.72;;;4.75;;
7057;SDS011;3570;43.080;25.628;2022-09-09T16:12:36;6.85;;;4.90;;
7057;SDS011;3570;43.080;25.628;2022-09-09T16:15:20;5.80;;;5.05;;
7057;SDS011;3570;43.080;25.628;2022-09-09T16:18:06;5.88;;;5.10;;
7057;SDS011;3570;43.080;25.628;2022-09-09T16:20:54;6.50;;;5.10;;
7057;SDS011;3570;43.080;25.628;2022-09-09T16:23:38;6.53;;;5.15;;
7057;SDS011;3570;43.080;25.628;2022-09-09T16:26:23;7.63;;;5.20;;
7057;SDS011;3570;43.080;25.628;2022-09-09T16:29:07;8.90;;;5.15;;
7057;SDS011;3570;43.080;25.628;2022-09-09T16:31:53;7.03;;;5.63;;
7057;SDS011;3570;43.080;25.628;2022-09-09T16:34:38;6.88;;;5.35;;
7057;SDS011;3570;43.080;25.628;2022-09-09T16:37:23;7.55;;;5.43;;
7057;SDS011;3570;43.080;25.628;2022-09-09T16:40:07;7.27;;;5.43;;
7057;SDS011;3570;43.080;25.628;2022-09-09T16:42:53;9.48;;;6.43;;
7057;SDS011;3570;43.080;25.628;2022-09-09T16:45:43;7.18;;;6.00;;
7057;SDS011;3570;43.080;25.628;2022-09-09T16:48:31;6.63;;;5.25;;
7057;SDS011;3570;43.080;25.628;2022-09-09T16:51:20;7.70;;;5.65;;
7057;SDS011;3570;43.080;25.628;2022-09-09T16:54:07;9.40;;;5.35;;
7057;SDS011;3570;43.080;25.628;2022-09-09T16:56:52;6.90;;;5.77;;
7057;SDS011;3570;43.080;25.628;2022-09-09T16:59:36;7.20;;;5.33;;
7057;SDS011;3570;43.080;25.628;2022-09-09T17:02:21;8.50;;;5.80;;
7057;SDS011;3570;43.080;25.628;2022-09-09T17:05:05;6.37;;;5.47;;
7057;SDS011;3570;43.080;25.628;2022-09-09T17:07:50;6.97;;;5.53;;
7057;SDS011;3570;43.080;25.628;2022-09-09T17:10:39;7.67;;;5.63;;
7057;SDS011;3570;43.080;25.628;2022-09-09T17:13:25;9.33;;;5.10;;
7057;SDS011;3570;43.080;25.628;2022-09-09T17:16:10;6.60;;;5.40;;
7057;SDS011;3570;43.080;25.628;2022-09-09T17:18:55;10.60;;;5.80;;
7057;SDS011;3570;43.080;25.628;2022-09-09T17:21:42;8.30;;;6.37;;
7057;SDS011;3570;43.080;25.628;2022-09-09T17:24:26;11.07;;;6.10;;
7057;SDS011;3570;43.080;25.628;2022-09-09T17:27:12;7.13;;;5.80;;
7057;SDS011;3570;43.080;25.628;2022-09-09T17:29:57;9.17;;;6.10;;
7057;SDS011;3570;43.080;25.628;2022-09-09T17:32:42;10.67;;;6.30;;
7057;SDS011;3570;43.080;25.628;2022-09-09T17:35:26;9.83;;;6.23;;
7057;SDS011;3570;43.080;25.628;2022-09-09T17:38:10;8.73;;;6.50;;
7057;SDS011;3570;43.080;25.628;2022-09-09T17:41:06;7.37;;;6.33;;
7057;SDS011;3570;43.080;25.628;2022-09-09T17:43:52;9.53;;;7.33;;
7057;SDS011;3570;43.080;25.628;2022-09-09T17:46:38;6.93;;;5.40;;
7057;SDS011;3570;43.080;25.628;2022-09-09T17:49:24;7.40;;;5.60;;
7057;SDS011;3570;43.080;25.628;2022-09-09T17:52:07;6.77;;;5.53;;
7057;SDS011;3570;43.080;25.628;2022-09-09T17:54:51;9.27;;;6.47;;
7057;SDS011;3570;43.080;25.628;2022-09-09T17:57:40;11.70;;;7.40;;
7057;SDS011;3570;43.080;25.628;2022-09-09T18:00:24;8.60;;;7.00;;
7057;SDS011;3570;43.080;25.628;2022-09-09T18:03:08;7.73;;;6.10;;
7057;SDS011;3570;43.080;25.628;2022-09-09T18:05:52;9.60;;;6.23;;
7057;SDS011;3570;43.080;25.628;2022-09-09T18:08:57;10.07;;;6.50;;
7057;SDS011;3570;43.080;25.628;2022-09-09T18:11:43;11.10;;;6.80;;
7057;SDS011;3570;43.080;25.628;2022-09-09T18:14:29;9.13;;;6.27;;
7057;SDS011;3570;43.080;25.628;2022-09-09T18:17:15;7.63;;;5.97;;
7057;SDS011;3570;43.080;25.628;2022-09-09T18:19:59;10.43;;;7.03;;
7057;SDS011;3570;43.080;25.628;2022-09-09T18:22:43;9.57;;;6.37;;
7057;SDS011;3570;43.080;25.628;2022-09-09T18:25:27;10.50;;;6.27;;
7057;SDS011;3570;43.080;25.628;2022-09-09T18:28:11;7.77;;;6.37;;
7057;SDS011;3570;43.080;25.628;2022-09-09T18:30:55;8.20;;;6.53;;
7057;SDS011;3570;43.080;25.628;2022-09-09T18:33:39;8.33;;;6.03;;
7057;SDS011;3570;43.080;25.628;2022-09-09T18:36:27;7.47;;;6.13;;
7057;SDS011;3570;43.080;25.628;2022-09-09T18:39:16;8.23;;;6.43;;
7057;SDS011;3570;43.080;25.628;2022-09-09T18:42:02;8.77;;;6.73;;
7057;SDS011;3570;43.080;25.628;2022-09-09T18:44:46;11.87;;;6.07;;
7057;SDS011;3570;43.080;25.628;2022-09-09T18:47:30;10.00;;;6.27;;
7057;SDS011;3570;43.080;25.628;2022-09-09T18:50:14;8.20;;;6.30;;
7057;SDS011;3570;43.080;25.628;2022-09-09T18:52:59;8.33;;;5.50;;
7057;SDS011;3570;43.080;25.628;2022-09-09T18:55:43;10.40;;;5.90;;
7057;SDS011;3570;43.080;25.628;2022-09-09T18:58:27;6.07;;;5.43;;
7057;SDS011;3570;43.080;25.628;2022-09-09T19:01:12;10.30;;;6.30;;
7057;SDS011;3570;43.080;25.628;2022-09-09T19:03:58;7.63;;;5.53;;
7057;SDS011;3570;43.080;25.628;2022-09-09T19:06:44;7.13;;;5.87;;